Terminal Aerodrome Forecast
Issued by NWS

Home | Current Version | Previous Version | Graphics & Text | Print | Product List | Glossary On
Versions: 1 2 3 4 5 6 7 8 9 10 11 12 13 14 15 16 17 18
000
FTUS41 KCLE 302300
TAFFDY
TAF
KFDY 302340Z 0100/0124 34005KT P6SM OVC028
      TEMPO 0104/0106 4SM BR BKN018
     FM010600 02004KT 3SM BR SCT004
     FM011000 01002KT 1/2SM FG VV003
     FM011400 06003KT 4SM BR OVC012
     FM011600 07004KT P6SM BKN022=

USA.gov is the U.S. government's official web portal to all federal, state and local government web resources and services.